sensor_id;sensor_type;location;lat;lon;timestamp;temperature;humidity
51619;DHT22;38518;53.164;5.430;2022-09-09T00:06:42;13.40;99.90
51619;DHT22;38518;53.164;5.430;2022-09-09T00:09:19;13.40;99.90
51619;DHT22;38518;53.164;5.430;2022-09-09T00:11:52;13.40;99.90
51619;DHT22;38518;53.164;5.430;2022-09-09T00:14:39;13.40;99.90
51619;DHT22;38518;53.164;5.430;2022-09-09T00:17:14;13.40;99.90
51619;DHT22;38518;53.164;5.430;2022-09-09T00:20:05;13.40;99.90
51619;DHT22;38518;53.164;5.430;2022-09-09T00:22:38;13.40;99.90
51619;DHT22;38518;53.164;5.430;2022-09-09T00:25:15;13.40;99.90
51619;DHT22;38518;53.164;5.430;2022-09-09T00:27:49;13.40;99.90
51619;DHT22;38518;53.164;5.430;2022-09-09T00:30:21;13.50;99.90
51619;DHT22;38518;53.164;5.430;2022-09-09T00:32:53;13.50;99.90
51619;DHT22;38518;53.164;5.430;2022-09-09T00:35:38;13.40;99.90
51619;DHT22;38518;53.164;5.430;2022-09-09T00:41:10;13.40;99.90
51619;DHT22;38518;53.164;5.430;2022-09-09T00:43:39;13.40;99.90
51619;DHT22;38518;53.164;5.430;2022-09-09T00:59:45;13.40;99.90
51619;DHT22;38518;53.164;5.430;2022-09-09T01:02:43;13.50;99.90
51619;DHT22;38518;53.164;5.430;2022-09-09T01:05:22;13.50;99.90
51619;DHT22;38518;53.164;5.430;2022-09-09T01:07:51;13.50;99.90
51619;DHT22;38518;53.164;5.430;2022-09-09T01:13:29;13.60;99.90
51619;DHT22;38518;53.164;5.430;2022-09-09T01:16:00;13.60;99.90
51619;DHT22;38518;53.164;5.430;2022-09-09T01:18:35;13.70;99.90
51619;DHT22;38518;53.164;5.430;2022-09-09T01:28:50;13.90;99.90
51619;DHT22;38518;53.164;5.430;2022-09-09T01:31:34;13.90;99.90
51619;DHT22;38518;53.164;5.430;2022-09-09T01:34:02;13.90;99.90
51619;DHT22;38518;53.164;5.430;2022-09-09T01:39:16;13.90;99.90
51619;DHT22;38518;53.164;5.430;2022-09-09T01:41:42;13.80;99.90
51619;DHT22;38518;53.164;5.430;2022-09-09T01:44:08;13.80;99.90
51619;DHT22;38518;53.164;5.430;2022-09-09T01:46:35;13.80;99.90
51619;DHT22;38518;53.164;5.430;2022-09-09T01:49:02;13.80;99.90
51619;DHT22;38518;53.164;5.430;2022-09-09T01:51:29;13.90;99.90
51619;DHT22;38518;53.164;5.430;2022-09-09T01:53:55;13.90;99.90
51619;DHT22;38518;53.164;5.430;2022-09-09T01:59:18;13.90;99.90
51619;DHT22;38518;53.164;5.430;2022-09-09T02:04:41;13.80;99.90
51619;DHT22;38518;53.164;5.430;2022-09-09T02:09:45;13.80;99.90
51619;DHT22;38518;53.164;5.430;2022-09-09T02:12:14;13.80;99.90
51619;DHT22;38518;53.164;5.430;2022-09-09T02:14:52;13.70;99.90
51619;DHT22;38518;53.164;5.430;2022-09-09T02:17:27;13.70;1.00
51619;DHT22;38518;53.164;5.430;2022-09-09T02:20:24;13.80;1.00
51619;DHT22;38518;53.164;5.430;2022-09-09T02:22:53;13.70;1.00
51619;DHT22;38518;53.164;5.430;2022-09-09T02:25:21;13.70;1.00
51619;DHT22;38518;53.164;5.430;2022-09-09T02:27:50;13.60;1.00
51619;DHT22;38518;53.164;5.430;2022-09-09T02:30:17;13.60;99.90
51619;DHT22;38518;53.164;5.430;2022-09-09T02:32:44;13.60;99.90
51619;DHT22;38518;53.164;5.430;2022-09-09T02:35:14;13.60;99.90
51619;DHT22;38518;53.164;5.430;2022-09-09T02:37:43;13.50;99.90
51619;DHT22;38518;53.164;5.430;2022-09-09T02:40:13;13.50;99.90
51619;DHT22;38518;53.164;5.430;2022-09-09T02:42:41;13.50;99.90
51619;DHT22;38518;53.164;5.430;2022-09-09T02:45:11;13.50;99.90
51619;DHT22;38518;53.164;5.430;2022-09-09T02:50:32;13.40;99.90
51619;DHT22;38518;53.164;5.430;2022-09-09T02:53:10;13.40;99.90
51619;DHT22;38518;53.164;5.430;2022-09-09T02:56:00;13.40;99.90
51619;DHT22;38518;53.164;5.430;2022-09-09T02:58:29;13.50;99.90
51619;DHT22;38518;53.164;5.430;2022-09-09T03:00:56;13.50;99.90
51619;DHT22;38518;53.164;5.430;2022-09-09T03:03:23;13.50;99.90
51619;DHT22;38518;53.164;5.430;2022-09-09T03:05:49;13.50;99.90
51619;DHT22;38518;53.164;5.430;2022-09-09T03:08:15;13.50;99.90
51619;DHT22;38518;53.164;5.430;2022-09-09T03:10:41;13.50;99.90
51619;DHT22;38518;53.164;5.430;2022-09-09T03:13:07;13.50;99.90
51619;DHT22;38518;53.164;5.430;2022-09-09T03:15:33;13.40;99.90
51619;DHT22;38518;53.164;5.430;2022-09-09T03:17:59;13.40;99.90
51619;DHT22;38518;53.164;5.430;2022-09-09T03:20:27;13.40;99.90
51619;DHT22;38518;53.164;5.430;2022-09-09T03:22:54;13.50;99.90
51619;DHT22;38518;53.164;5.430;2022-09-09T03:25:20;13.50;99.90
51619;DHT22;38518;53.164;5.430;2022-09-09T03:27:49;13.50;99.90
51619;DHT22;38518;53.164;5.430;2022-09-09T03:30:15;13.60;99.90
51619;DHT22;38518;53.164;5.430;2022-09-09T03:32:41;13.60;99.90
51619;DHT22;38518;53.164;5.430;2022-09-09T03:35:07;13.60;99.90
51619;DHT22;38518;53.164;5.430;2022-09-09T03:37:33;13.60;99.90
51619;DHT22;38518;53.164;5.430;2022-09-09T03:39:59;13.60;99.90
51619;DHT22;38518;53.164;5.430;2022-09-09T03:42:25;13.50;99.90
51619;DHT22;38518;53.164;5.430;2022-09-09T03:44:51;13.50;99.90
51619;DHT22;38518;53.164;5.430;2022-09-09T03:47:19;13.50;99.90
51619;DHT22;38518;53.164;5.430;2022-09-09T03:49:45;13.50;99.90
51619;DHT22;38518;53.164;5.430;2022-09-09T03:52:11;13.50;99.90
51619;DHT22;38518;53.164;5.430;2022-09-09T03:54:37;13.40;99.90
51619;DHT22;38518;53.164;5.430;2022-09-09T03:57:03;13.40;99.90
51619;DHT22;38518;53.164;5.430;2022-09-09T03:59:30;13.40;99.90
51619;DHT22;38518;53.164;5.430;2022-09-09T04:01:55;13.30;99.90
51619;DHT22;38518;53.164;5.430;2022-09-09T04:04:22;13.30;99.90
51619;DHT22;38518;53.164;5.430;2022-09-09T04:06:48;13.30;99.90
51619;DHT22;38518;53.164;5.430;2022-09-09T04:09:14;13.30;99.90
51619;DHT22;38518;53.164;5.430;2022-09-09T04:11:40;13.30;99.90
51619;DHT22;38518;53.164;5.430;2022-09-09T04:14:06;13.20;99.90
51619;DHT22;38518;53.164;5.430;2022-09-09T04:16:33;13.20;99.90
51619;DHT22;38518;53.164;5.430;2022-09-09T04:18:59;13.20;99.90
51619;DHT22;38518;53.164;5.430;2022-09-09T04:21:28;13.20;99.90
51619;DHT22;38518;53.164;5.430;2022-09-09T04:23:54;13.10;99.90
51619;DHT22;38518;53.164;5.430;2022-09-09T04:26:20;13.20;99.90
51619;DHT22;38518;53.164;5.430;2022-09-09T04:28:46;13.20;99.90
51619;DHT22;38518;53.164;5.430;2022-09-09T04:31:18;13.20;99.90
51619;DHT22;38518;53.164;5.430;2022-09-09T04:33:46;13.30;1.00
51619;DHT22;38518;53.164;5.430;2022-09-09T04:36:12;13.30;1.00
51619;DHT22;38518;53.164;5.430;2022-09-09T04:38:38;13.00;1.00
51619;DHT22;38518;53.164;5.430;2022-09-09T04:41:04;13.30;1.00
51619;DHT22;38518;53.164;5.430;2022-09-09T04:43:30;13.40;1.00
51619;DHT22;38518;53.164;5.430;2022-09-09T04:45:56;13.40;1.00
51619;DHT22;38518;53.164;5.430;2022-09-09T04:48:22;13.50;1.00
51619;DHT22;38518;53.164;5.430;2022-09-09T04:51:05;13.50;1.00
51619;DHT22;38518;53.164;5.430;2022-09-09T04:53:32;13.60;1.00
51619;DHT22;38518;53.164;5.430;2022-09-09T04:56:04;13.60;1.00
51619;DHT22;38518;53.164;5.430;2022-09-09T04:58:31;13.60;1.00
51619;DHT22;38518;53.164;5.430;2022-09-09T05:01:14;13.70;1.00
51619;DHT22;38518;53.164;5.430;2022-09-09T05:03:41;13.70;1.00
51619;DHT22;38518;53.164;5.430;2022-09-09T05:06:09;13.70;1.00
51619;DHT22;38518;53.164;5.430;2022-09-09T05:08:37;13.70;1.00
51619;DHT22;38518;53.164;5.430;2022-09-09T05:11:11;13.70;1.00
51619;DHT22;38518;53.164;5.430;2022-09-09T05:13:37;13.70;1.00
51619;DHT22;38518;53.164;5.430;2022-09-09T05:16:03;13.70;1.00
51619;DHT22;38518;53.164;5.430;2022-09-09T05:18:29;13.70;1.00
51619;DHT22;38518;53.164;5.430;2022-09-09T05:20:59;13.60;1.00
51619;DHT22;38518;53.164;5.430;2022-09-09T05:23:25;13.60;1.00
51619;DHT22;38518;53.164;5.430;2022-09-09T05:25:58;13.50;1.00
51619;DHT22;38518;53.164;5.430;2022-09-09T05:28:25;13.50;1.00
51619;DHT22;38518;53.164;5.430;2022-09-09T05:31:05;13.50;1.00
51619;DHT22;38518;53.164;5.430;2022-09-09T05:33:34;13.40;1.00
51619;DHT22;38518;53.164;5.430;2022-09-09T05:36:05;13.40;1.00
51619;DHT22;38518;53.164;5.430;2022-09-09T05:38:32;13.40;1.00
51619;DHT22;38518;53.164;5.430;2022-09-09T05:40:59;13.30;1.00
51619;DHT22;38518;53.164;5.430;2022-09-09T05:43:26;13.30;1.00
51619;DHT22;38518;53.164;5.430;2022-09-09T05:46:06;13.30;1.00
51619;DHT22;38518;53.164;5.430;2022-09-09T05:48:35;13.30;1.00
51619;DHT22;38518;53.164;5.430;2022-09-09T05:51:01;13.40;1.00
51619;DHT22;38518;53.164;5.430;2022-09-09T05:53:28;13.40;1.00
51619;DHT22;38518;53.164;5.430;2022-09-09T05:56:05;13.50;1.00
51619;DHT22;38518;53.164;5.430;2022-09-09T05:58:32;13.50;1.00
51619;DHT22;38518;53.164;5.430;2022-09-09T06:01:06;13.60;1.00
51619;DHT22;38518;53.164;5.430;2022-09-09T06:03:37;13.60;1.00
51619;DHT22;38518;53.164;5.430;2022-09-09T06:06:05;13.60;1.00
51619;DHT22;38518;53.164;5.430;2022-09-09T06:08:33;13.60;1.00
51619;DHT22;38518;53.164;5.430;2022-09-09T06:11:05;13.60;1.00
51619;DHT22;38518;53.164;5.430;2022-09-09T06:13:31;13.70;1.00
51619;DHT22;38518;53.164;5.430;2022-09-09T06:15:58;13.70;1.00
51619;DHT22;38518;53.164;5.430;2022-09-09T06:18:24;13.80;1.00
51619;DHT22;38518;53.164;5.430;2022-09-09T06:20:58;13.80;1.00
51619;DHT22;38518;53.164;5.430;2022-09-09T06:23:26;13.90;1.00
51619;DHT22;38518;53.164;5.430;2022-09-09T06:26:21;13.90;1.00
51619;DHT22;38518;53.164;5.430;2022-09-09T06:28:48;14.00;1.00
51619;DHT22;38518;53.164;5.430;2022-09-09T06:31:16;14.00;1.00
51619;DHT22;38518;53.164;5.430;2022-09-09T06:33:53;14.10;1.00
51619;DHT22;38518;53.164;5.430;2022-09-09T06:36:23;14.10;1.00
51619;DHT22;38518;53.164;5.430;2022-09-09T06:38:49;14.20;1.00
51619;DHT22;38518;53.164;5.430;2022-09-09T06:41:17;14.40;1.00
51619;DHT22;38518;53.164;5.430;2022-09-09T06:43:44;14.40;1.00
51619;DHT22;38518;53.164;5.430;2022-09-09T06:48:39;14.30;1.00
51619;DHT22;38518;53.164;5.430;2022-09-09T06:53:35;14.40;1.00
51619;DHT22;38518;53.164;5.430;2022-09-09T06:56:02;14.50;1.00
51619;DHT22;38518;53.164;5.430;2022-09-09T06:58:43;14.60;1.00
51619;DHT22;38518;53.164;5.430;2022-09-09T07:01:11;14.80;41.10
51619;DHT22;38518;53.164;5.430;2022-09-09T07:03:41;15.10;99.90
51619;DHT22;38518;53.164;5.430;2022-09-09T07:06:09;15.50;99.90
51619;DHT22;38518;53.164;5.430;2022-09-09T07:08:43;15.70;99.90
51619;DHT22;38518;53.164;5.430;2022-09-09T07:11:10;16.00;99.90
51619;DHT22;38518;53.164;5.430;2022-09-09T07:13:36;16.10;99.90
51619;DHT22;38518;53.164;5.430;2022-09-09T07:16:06;16.40;99.90
51619;DHT22;38518;53.164;5.430;2022-09-09T07:18:32;16.70;99.90
51619;DHT22;38518;53.164;5.430;2022-09-09T07:20:58;16.90;8.30
51619;DHT22;38518;53.164;5.430;2022-09-09T07:23:24;16.80;1.00
51619;DHT22;38518;53.164;5.430;2022-09-09T07:25:51;16.70;99.90
51619;DHT22;38518;53.164;5.430;2022-09-09T07:28:21;16.60;99.90
51619;DHT22;38518;53.164;5.430;2022-09-09T07:30:59;16.70;99.90
51619;DHT22;38518;53.164;5.430;2022-09-09T07:33:29;16.90;99.90
51619;DHT22;38518;53.164;5.430;2022-09-09T07:36:06;17.30;99.90
51619;DHT22;38518;53.164;5.430;2022-09-09T07:38:40;17.50;99.90
51619;DHT22;38518;53.164;5.430;2022-09-09T07:41:08;17.80;99.90
51619;DHT22;38518;53.164;5.430;2022-09-09T07:43:41;17.90;99.90
51619;DHT22;38518;53.164;5.430;2022-09-09T07:46:08;18.00;99.90
51619;DHT22;38518;53.164;5.430;2022-09-09T07:48:35;18.00;99.90
51619;DHT22;38518;53.164;5.430;2022-09-09T07:51:11;17.90;39.70
51619;DHT22;38518;53.164;5.430;2022-09-09T07:53:40;17.80;1.00
51619;DHT22;38518;53.164;5.430;2022-09-09T07:56:11;17.60;1.00
51619;DHT22;38518;53.164;5.430;2022-09-09T07:58:38;17.50;1.00
51619;DHT22;38518;53.164;5.430;2022-09-09T08:01:13;17.50;46.10
51619;DHT22;38518;53.164;5.430;2022-09-09T08:03:39;17.70;1.00
51619;DHT22;38518;53.164;5.430;2022-09-09T08:06:07;17.80;1.00
51619;DHT22;38518;53.164;5.430;2022-09-09T08:08:37;17.80;1.00
51619;DHT22;38518;53.164;5.430;2022-09-09T08:11:11;17.90;1.00
51619;DHT22;38518;53.164;5.430;2022-09-09T08:13:37;17.90;1.00
51619;DHT22;38518;53.164;5.430;2022-09-09T08:16:06;17.90;1.00
51619;DHT22;38518;53.164;5.430;2022-09-09T08:18:32;18.10;1.00
51619;DHT22;38518;53.164;5.430;2022-09-09T08:21:04;18.10;1.00
51619;DHT22;38518;53.164;5.430;2022-09-09T08:23:30;18.30;1.00
51619;DHT22;38518;53.164;5.430;2022-09-09T08:26:03;18.50;1.00
51619;DHT22;38518;53.164;5.430;2022-09-09T08:28:30;18.50;99.90
51619;DHT22;38518;53.164;5.430;2022-09-09T08:31:04;18.50;1.00
51619;DHT22;38518;53.164;5.430;2022-09-09T08:33:29;18.40;1.00
51619;DHT22;38518;53.164;5.430;2022-09-09T08:35:55;18.20;99.90
51619;DHT22;38518;53.164;5.430;2022-09-09T08:38:21;18.10;99.90
51619;DHT22;38518;53.164;5.430;2022-09-09T08:40:49;17.90;99.90
51619;DHT22;38518;53.164;5.430;2022-09-09T08:43:21;17.90;1.00
51619;DHT22;38518;53.164;5.430;2022-09-09T08:46:03;17.90;1.00
51619;DHT22;38518;53.164;5.430;2022-09-09T08:49:03;17.90;1.00
51619;DHT22;38518;53.164;5.430;2022-09-09T08:51:32;17.90;99.90
51619;DHT22;38518;53.164;5.430;2022-09-09T08:54:02;17.90;1.00
51619;DHT22;38518;53.164;5.430;2022-09-09T08:56:32;17.90;1.00
51619;DHT22;38518;53.164;5.430;2022-09-09T08:59:00;17.70;99.90
51619;DHT22;38518;53.164;5.430;2022-09-09T09:04:39;17.70;1.00
51619;DHT22;38518;53.164;5.430;2022-09-09T09:12:43;18.20;99.90
51619;DHT22;38518;53.164;5.430;2022-09-09T09:15:21;18.60;1.00
51619;DHT22;38518;53.164;5.430;2022-09-09T09:17:48;19.40;99.90
51619;DHT22;38518;53.164;5.430;2022-09-09T09:20:15;20.30;99.90
51619;DHT22;38518;53.164;5.430;2022-09-09T09:22:52;21.10;99.90
51619;DHT22;38518;53.164;5.430;2022-09-09T09:25:31;21.70;99.90
51619;DHT22;38518;53.164;5.430;2022-09-09T09:28:00;22.10;99.90
51619;DHT22;38518;53.164;5.430;2022-09-09T09:36:01;21.10;99.90
51619;DHT22;38518;53.164;5.430;2022-09-09T09:38:29;20.70;99.90
51619;DHT22;38518;53.164;5.430;2022-09-09T09:40:57;20.30;99.90
51619;DHT22;38518;53.164;5.430;2022-09-09T09:43:30;20.50;99.90
51619;DHT22;38518;53.164;5.430;2022-09-09T09:45:56;21.40;99.90
51619;DHT22;38518;53.164;5.430;2022-09-09T09:48:26;22.50;99.90
51619;DHT22;38518;53.164;5.430;2022-09-09T09:50:59;22.50;99.90
51619;DHT22;38518;53.164;5.430;2022-09-09T09:53:27;22.80;99.90
51619;DHT22;38518;53.164;5.430;2022-09-09T09:55:59;23.20;94.00
51619;DHT22;38518;53.164;5.430;2022-09-09T09:58:49;22.50;86.40
51619;DHT22;38518;53.164;5.430;2022-09-09T10:06:41;25.00;12.30
51619;DHT22;38518;53.164;5.430;2022-09-09T10:09:23;25.00;49.50
51619;DHT22;38518;53.164;5.430;2022-09-09T10:12:05;24.70;15.60
51619;DHT22;38518;53.164;5.430;2022-09-09T10:22:34;22.80;30.30
51619;DHT22;38518;53.164;5.430;2022-09-09T10:33:39;21.50;44.30
51619;DHT22;38518;53.164;5.430;2022-09-09T10:36:23;21.20;46.30
51619;DHT22;38518;53.164;5.430;2022-09-09T10:44:02;20.90;69.00
51619;DHT22;38518;53.164;5.430;2022-09-09T10:47:00;21.30;89.80
51619;DHT22;38518;53.164;5.430;2022-09-09T10:55:26;23.30;27.10
51619;DHT22;38518;53.164;5.430;2022-09-09T10:57:56;23.40;15.90
51619;DHT22;38518;53.164;5.430;2022-09-09T11:03:03;22.70;5.60
51619;DHT22;38518;53.164;5.430;2022-09-09T11:05:44;22.20;11.00
51619;DHT22;38518;53.164;5.430;2022-09-09T11:08:18;21.80;13.00
51619;DHT22;38518;53.164;5.430;2022-09-09T11:16:52;22.00;18.80
51619;DHT22;38518;53.164;5.430;2022-09-09T11:19:26;22.10;27.50
51619;DHT22;38518;53.164;5.430;2022-09-09T11:21:53;22.60;24.90
51619;DHT22;38518;53.164;5.430;2022-09-09T11:24:27;22.90;23.50
51619;DHT22;38518;53.164;5.430;2022-09-09T11:27:02;22.80;20.70
51619;DHT22;38518;53.164;5.430;2022-09-09T11:32:38;22.10;16.50
51619;DHT22;38518;53.164;5.430;2022-09-09T11:40:44;21.50;26.20
51619;DHT22;38518;53.164;5.430;2022-09-09T11:43:21;21.50;37.60
51619;DHT22;38518;53.164;5.430;2022-09-09T11:45:57;21.50;26.00
51619;DHT22;38518;53.164;5.430;2022-09-09T11:48:34;21.30;27.30
51619;DHT22;38518;53.164;5.430;2022-09-09T11:51:09;21.10;25.00
51619;DHT22;38518;53.164;5.430;2022-09-09T11:53:57;21.00;31.70
51619;DHT22;38518;53.164;5.430;2022-09-09T11:56:43;21.10;33.80
51619;DHT22;38518;53.164;5.430;2022-09-09T12:01:45;21.10;35.60
51619;DHT22;38518;53.164;5.430;2022-09-09T12:06:50;20.80;54.30
51619;DHT22;38518;53.164;5.430;2022-09-09T12:12:16;20.50;82.20
51619;DHT22;38518;53.164;5.430;2022-09-09T12:17:45;20.50;99.90
51619;DHT22;38518;53.164;5.430;2022-09-09T12:20:21;20.70;91.00
51619;DHT22;38518;53.164;5.430;2022-09-09T12:30:37;21.90;88.70
51619;DHT22;38518;53.164;5.430;2022-09-09T12:33:11;21.80;71.90
51619;DHT22;38518;53.164;5.430;2022-09-09T12:35:43;21.50;51.40
51619;DHT22;38518;53.164;5.430;2022-09-09T12:38:22;21.10;57.20
51619;DHT22;38518;53.164;5.430;2022-09-09T12:40:55;21.00;60.90
51619;DHT22;38518;53.164;5.430;2022-09-09T12:43:23;21.10;61.70
51619;DHT22;38518;53.164;5.430;2022-09-09T12:46:01;21.10;54.20
51619;DHT22;38518;53.164;5.430;2022-09-09T12:48:33;21.10;49.60
51619;DHT22;38518;53.164;5.430;2022-09-09T12:51:00;21.20;61.30
51619;DHT22;38518;53.164;5.430;2022-09-09T12:53:36;21.30;60.70
51619;DHT22;38518;53.164;5.430;2022-09-09T12:56:19;21.30;46.80
51619;DHT22;38518;53.164;5.430;2022-09-09T12:58:47;21.20;52.80
51619;DHT22;38518;53.164;5.430;2022-09-09T13:03:51;21.30;55.10
51619;DHT22;38518;53.164;5.430;2022-09-09T13:06:31;21.50;60.10
51619;DHT22;38518;53.164;5.430;2022-09-09T13:08:59;22.30;36.90
51619;DHT22;38518;53.164;5.430;2022-09-09T13:11:41;23.10;37.80
51619;DHT22;38518;53.164;5.430;2022-09-09T13:14:30;23.40;19.80
51619;DHT22;38518;53.164;5.430;2022-09-09T13:17:02;22.80;14.90
51619;DHT22;38518;53.164;5.430;2022-09-09T13:19:35;22.90;27.70
51619;DHT22;38518;53.164;5.430;2022-09-09T13:22:20;23.70;26.70
51619;DHT22;38518;53.164;5.430;2022-09-09T13:24:45;24.70;11.60
51619;DHT22;38518;53.164;5.430;2022-09-09T13:27:34;24.80;5.60
51619;DHT22;38518;53.164;5.430;2022-09-09T13:30:36;24.20;1.00
51619;DHT22;38518;53.164;5.430;2022-09-09T13:33:20;23.40;1.00
51619;DHT22;38518;53.164;5.430;2022-09-09T13:35:54;23.40;5.30
51619;DHT22;38518;53.164;5.430;2022-09-09T13:38:21;23.80;7.60
51619;DHT22;38518;53.164;5.430;2022-09-09T13:41:00;24.10;1.00
51619;DHT22;38518;53.164;5.430;2022-09-09T13:43:46;24.50;1.00
51619;DHT22;38518;53.164;5.430;2022-09-09T13:46:34;25.50;1.00
51619;DHT22;38518;53.164;5.430;2022-09-09T13:51:39;26.90;1.00
51619;DHT22;38518;53.164;5.430;2022-09-09T13:54:09;26.90;1.00
51619;DHT22;38518;53.164;5.430;2022-09-09T13:56:36;26.40;1.00
51619;DHT22;38518;53.164;5.430;2022-09-09T13:59:04;26.30;1.00
51619;DHT22;38518;53.164;5.430;2022-09-09T14:01:30;26.40;1.00
51619;DHT22;38518;53.164;5.430;2022-09-09T14:03:56;25.90;1.00
51619;DHT22;38518;53.164;5.430;2022-09-09T14:06:22;25.80;1.00
51619;DHT22;38518;53.164;5.430;2022-09-09T14:08:51;25.50;1.00
51619;DHT22;38518;53.164;5.430;2022-09-09T14:11:18;24.90;1.00
51619;DHT22;38518;53.164;5.430;2022-09-09T14:13:44;24.60;1.00
51619;DHT22;38518;53.164;5.430;2022-09-09T14:16:10;24.00;1.00
51619;DHT22;38518;53.164;5.430;2022-09-09T14:18:36;23.60;1.00
51619;DHT22;38518;53.164;5.430;2022-09-09T14:21:03;23.20;1.00
51619;DHT22;38518;53.164;5.430;2022-09-09T14:23:29;22.90;1.00
51619;DHT22;38518;53.164;5.430;2022-09-09T14:25:55;22.30;1.00
51619;DHT22;38518;53.164;5.430;2022-09-09T14:28:21;21.90;1.00
51619;DHT22;38518;53.164;5.430;2022-09-09T14:30:47;21.60;3.00
51619;DHT22;38518;53.164;5.430;2022-09-09T14:33:15;21.30;9.00
51619;DHT22;38518;53.164;5.430;2022-09-09T14:35:41;21.00;21.90
51619;DHT22;38518;53.164;5.430;2022-09-09T14:38:08;20.70;49.60
51619;DHT22;38518;53.164;5.430;2022-09-09T14:40:36;20.20;71.00
51619;DHT22;38518;53.164;5.430;2022-09-09T14:43:02;19.70;96.70
51619;DHT22;38518;53.164;5.430;2022-09-09T14:45:28;19.40;99.90
51619;DHT22;38518;53.164;5.430;2022-09-09T14:47:54;19.00;99.90
51619;DHT22;38518;53.164;5.430;2022-09-09T14:50:21;18.80;99.90
51619;DHT22;38518;53.164;5.430;2022-09-09T14:52:47;18.70;99.90
51619;DHT22;38518;53.164;5.430;2022-09-09T14:55:13;18.60;99.90
51619;DHT22;38518;53.164;5.430;2022-09-09T14:57:40;18.70;99.90
51619;DHT22;38518;53.164;5.430;2022-09-09T15:00:09;19.10;99.90
51619;DHT22;38518;53.164;5.430;2022-09-09T15:02:35;19.20;99.90
51619;DHT22;38518;53.164;5.430;2022-09-09T15:05:01;19.40;99.90
51619;DHT22;38518;53.164;5.430;2022-09-09T15:07:27;19.40;99.90
51619;DHT22;38518;53.164;5.430;2022-09-09T15:09:54;19.70;99.90
51619;DHT22;38518;53.164;5.430;2022-09-09T15:12:20;19.90;99.90
51619;DHT22;38518;53.164;5.430;2022-09-09T15:14:46;19.80;99.90
51619;DHT22;38518;53.164;5.430;2022-09-09T15:17:12;19.70;99.90
51619;DHT22;38518;53.164;5.430;2022-09-09T15:19:38;19.70;99.90
51619;DHT22;38518;53.164;5.430;2022-09-09T15:22:05;19.80;99.90
51619;DHT22;38518;53.164;5.430;2022-09-09T15:24:34;20.60;99.90
51619;DHT22;38518;53.164;5.430;2022-09-09T15:27:01;21.00;99.90
51619;DHT22;38518;53.164;5.430;2022-09-09T15:29:27;20.70;99.90
51619;DHT22;38518;53.164;5.430;2022-09-09T15:31:54;20.40;99.90
51619;DHT22;38518;53.164;5.430;2022-09-09T15:34:21;20.00;99.90
51619;DHT22;38518;53.164;5.430;2022-09-09T15:36:47;19.80;99.90
51619;DHT22;38518;53.164;5.430;2022-09-09T15:39:15;19.60;99.90
51619;DHT22;38518;53.164;5.430;2022-09-09T15:41:42;19.50;99.90
51619;DHT22;38518;53.164;5.430;2022-09-09T15:44:10;19.40;99.90
51619;DHT22;38518;53.164;5.430;2022-09-09T15:46:38;19.30;99.90
51619;DHT22;38518;53.164;5.430;2022-09-09T15:49:11;19.50;99.90
51619;DHT22;38518;53.164;5.430;2022-09-09T15:51:42;20.00;99.90
51619;DHT22;38518;53.164;5.430;2022-09-09T15:54:10;20.50;99.90
51619;DHT22;38518;53.164;5.430;2022-09-09T15:56:36;20.50;99.90
51619;DHT22;38518;53.164;5.430;2022-09-09T15:59:02;21.30;99.90
51619;DHT22;38518;53.164;5.430;2022-09-09T16:01:29;22.10;99.90
51619;DHT22;38518;53.164;5.430;2022-09-09T16:03:57;22.80;99.90
51619;DHT22;38518;53.164;5.430;2022-09-09T16:06:24;23.10;99.90
51619;DHT22;38518;53.164;5.430;2022-09-09T16:08:52;23.20;76.80
51619;DHT22;38518;53.164;5.430;2022-09-09T16:11:24;22.90;93.20
51619;DHT22;38518;53.164;5.430;2022-09-09T16:13:52;22.30;90.10
51619;DHT22;38518;53.164;5.430;2022-09-09T16:16:19;21.60;99.90
51619;DHT22;38518;53.164;5.430;2022-09-09T16:18:49;21.20;99.90
51619;DHT22;38518;53.164;5.430;2022-09-09T16:21:26;20.80;99.90
51619;DHT22;38518;53.164;5.430;2022-09-09T16:23:55;20.60;99.90
51619;DHT22;38518;53.164;5.430;2022-09-09T16:26:22;20.20;99.90
51619;DHT22;38518;53.164;5.430;2022-09-09T16:28:48;20.10;99.90
51619;DHT22;38518;53.164;5.430;2022-09-09T16:31:20;21.00;99.90
51619;DHT22;38518;53.164;5.430;2022-09-09T16:33:47;19.80;99.90
51619;DHT22;38518;53.164;5.430;2022-09-09T16:36:24;19.70;99.90
51619;DHT22;38518;53.164;5.430;2022-09-09T16:38:56;19.60;99.90
51619;DHT22;38518;53.164;5.430;2022-09-09T16:41:23;19.50;99.90
51619;DHT22;38518;53.164;5.430;2022-09-09T16:44:00;19.40;99.90
51619;DHT22;38518;53.164;5.430;2022-09-09T16:46:29;19.30;99.90
51619;DHT22;38518;53.164;5.430;2022-09-09T16:48:59;19.20;99.90
51619;DHT22;38518;53.164;5.430;2022-09-09T16:51:31;19.10;99.90
51619;DHT22;38518;53.164;5.430;2022-09-09T16:54:02;18.90;99.90
51619;DHT22;38518;53.164;5.430;2022-09-09T16:56:30;19.00;99.90
51619;DHT22;38518;53.164;5.430;2022-09-09T16:58:59;18.80;99.90
51619;DHT22;38518;53.164;5.430;2022-09-09T17:01:27;18.80;99.90
51619;DHT22;38518;53.164;5.430;2022-09-09T17:03:57;18.80;99.90
51619;DHT22;38518;53.164;5.430;2022-09-09T17:06:24;18.70;99.90
51619;DHT22;38518;53.164;5.430;2022-09-09T17:08:55;18.60;99.90
51619;DHT22;38518;53.164;5.430;2022-09-09T17:11:21;18.60;99.90
51619;DHT22;38518;53.164;5.430;2022-09-09T17:13:51;18.50;99.90
51619;DHT22;38518;53.164;5.430;2022-09-09T17:16:19;18.50;99.90
51619;DHT22;38518;53.164;5.430;2022-09-09T17:18:47;18.50;99.90
51619;DHT22;38518;53.164;5.430;2022-09-09T17:21:15;18.50;99.90
51619;DHT22;38518;53.164;5.430;2022-09-09T17:23:42;18.50;99.90
51619;DHT22;38518;53.164;5.430;2022-09-09T17:26:10;18.30;99.90
51619;DHT22;38518;53.164;5.430;2022-09-09T17:28:38;18.30;99.90
51619;DHT22;38518;53.164;5.430;2022-09-09T17:31:06;18.20;99.90
51619;DHT22;38518;53.164;5.430;2022-09-09T17:33:34;18.20;99.90
51619;DHT22;38518;53.164;5.430;2022-09-09T17:36:05;18.10;99.90
51619;DHT22;38518;53.164;5.430;2022-09-09T17:38:32;18.10;99.90
51619;DHT22;38518;53.164;5.430;2022-09-09T17:41:06;18.10;99.90
51619;DHT22;38518;53.164;5.430;2022-09-09T17:43:33;18.10;99.90
51619;DHT22;38518;53.164;5.430;2022-09-09T17:46:10;18.00;99.90
51619;DHT22;38518;53.164;5.430;2022-09-09T17:48:37;18.00;99.90
51619;DHT22;38518;53.164;5.430;2022-09-09T17:51:12;17.90;99.90
51619;DHT22;38518;53.164;5.430;2022-09-09T17:53:41;17.80;1.00
51619;DHT22;38518;53.164;5.430;2022-09-09T17:56:09;17.80;1.00
51619;DHT22;38518;53.164;5.430;2022-09-09T17:58:36;17.80;1.00
51619;DHT22;38518;53.164;5.430;2022-09-09T18:01:10;17.70;1.00
51619;DHT22;38518;53.164;5.430;2022-09-09T18:03:37;17.80;1.00
51619;DHT22;38518;53.164;5.430;2022-09-09T18:06:05;17.60;1.00
51619;DHT22;38518;53.164;5.430;2022-09-09T18:08:32;17.60;1.00
51619;DHT22;38518;53.164;5.430;2022-09-09T18:10:58;17.50;1.00
51619;DHT22;38518;53.164;5.430;2022-09-09T18:13:26;17.50;1.00
51619;DHT22;38518;53.164;5.430;2022-09-09T18:15:52;17.60;1.00